sensor_id;sensor_type;location;lat;lon;timestamp;temperature;humidity
68217;DHT22;55037;52.354;4.992;2022-12-01T00:01:15;7.40;91.80
68217;DHT22;55037;52.354;4.992;2022-12-01T00:03:42;7.50;91.50
68217;DHT22;55037;52.354;4.992;2022-12-01T00:06:18;7.50;91.40
68217;DHT22;55037;52.354;4.992;2022-12-01T00:08:48;7.50;91.20
68217;DHT22;55037;52.354;4.992;2022-12-01T00:11:36;7.50;91.20
68217;DHT22;55037;52.354;4.992;2022-12-01T00:14:04;7.50;91.20
68217;DHT22;55037;52.354;4.992;2022-12-01T00:16:32;7.50;91.20
68217;DHT22;55037;52.354;4.992;2022-12-01T00:19:00;7.40;90.80
68217;DHT22;55037;52.354;4.992;2022-12-01T00:21:27;7.40;91.20
68217;DHT22;55037;52.354;4.992;2022-12-01T00:23:56;7.40;91.20
68217;DHT22;55037;52.354;4.992;2022-12-01T00:26:24;7.40;91.30
68217;DHT22;55037;52.354;4.992;2022-12-01T00:28:54;7.40;91.40
68217;DHT22;55037;52.354;4.992;2022-12-01T00:31:22;7.40;91.40
68217;DHT22;55037;52.354;4.992;2022-12-01T00:33:50;7.40;91.40
68217;DHT22;55037;52.354;4.992;2022-12-01T00:36:17;7.40;91.50
68217;DHT22;55037;52.354;4.992;2022-12-01T00:38:45;7.50;91.30
68217;DHT22;55037;52.354;4.992;2022-12-01T00:41:12;7.50;91.60
68217;DHT22;55037;52.354;4.992;2022-12-01T00:43:40;7.50;91.40
68217;DHT22;55037;52.354;4.992;2022-12-01T00:46:07;7.60;91.30
68217;DHT22;55037;52.354;4.992;2022-12-01T00:48:34;7.60;91.20
68217;DHT22;55037;52.354;4.992;2022-12-01T00:51:02;7.60;91.20
68217;DHT22;55037;52.354;4.992;2022-12-01T00:53:29;7.60;91.10
68217;DHT22;55037;52.354;4.992;2022-12-01T00:55:56;7.60;91.00
68217;DHT22;55037;52.354;4.992;2022-12-01T00:58:24;7.60;91.00
68217;DHT22;55037;52.354;4.992;2022-12-01T01:00:59;7.60;91.10
68217;DHT22;55037;52.354;4.992;2022-12-01T01:03:27;7.60;91.10
68217;DHT22;55037;52.354;4.992;2022-12-01T01:05:56;7.60;91.00
68217;DHT22;55037;52.354;4.992;2022-12-01T01:08:29;7.70;90.80
68217;DHT22;55037;52.354;4.992;2022-12-01T01:10:58;7.70;91.20
68217;DHT22;55037;52.354;4.992;2022-12-01T01:13:26;7.70;91.10
68217;DHT22;55037;52.354;4.992;2022-12-01T01:15:58;7.70;91.10
68217;DHT22;55037;52.354;4.992;2022-12-01T01:18:26;7.70;90.90
68217;DHT22;55037;52.354;4.992;2022-12-01T01:20:58;7.60;90.80
68217;DHT22;55037;52.354;4.992;2022-12-01T01:23:26;7.50;90.70
68217;DHT22;55037;52.354;4.992;2022-12-01T01:25:53;7.40;90.70
68217;DHT22;55037;52.354;4.992;2022-12-01T01:28:26;7.30;91.10
68217;DHT22;55037;52.354;4.992;2022-12-01T01:30:53;7.20;91.40
68217;DHT22;55037;52.354;4.992;2022-12-01T01:33:20;7.20;91.60
68217;DHT22;55037;52.354;4.992;2022-12-01T01:35:47;7.30;91.60
68217;DHT22;55037;52.354;4.992;2022-12-01T01:38:15;7.40;91.60
68217;DHT22;55037;52.354;4.992;2022-12-01T01:40:43;7.40;91.50
68217;DHT22;55037;52.354;4.992;2022-12-01T01:43:15;7.50;91.50
68217;DHT22;55037;52.354;4.992;2022-12-01T01:45:43;7.50;91.40
68217;DHT22;55037;52.354;4.992;2022-12-01T01:48:12;7.60;91.00
68217;DHT22;55037;52.354;4.992;2022-12-01T01:50:40;7.60;91.30
68217;DHT22;55037;52.354;4.992;2022-12-01T01:53:11;7.60;91.20
68217;DHT22;55037;52.354;4.992;2022-12-01T01:55:39;7.70;91.10
68217;DHT22;55037;52.354;4.992;2022-12-01T01:58:08;7.70;91.10
68217;DHT22;55037;52.354;4.992;2022-12-01T02:00:38;7.70;91.10
68217;DHT22;55037;52.354;4.992;2022-12-01T02:03:07;7.70;91.00
68217;DHT22;55037;52.354;4.992;2022-12-01T02:05:36;7.70;91.00
68217;DHT22;55037;52.354;4.992;2022-12-01T02:08:05;7.80;90.60
68217;DHT22;55037;52.354;4.992;2022-12-01T02:13:35;7.70;90.90
68217;DHT22;55037;52.354;4.992;2022-12-01T02:19:03;7.70;90.90
68217;DHT22;55037;52.354;4.992;2022-12-01T02:21:55;7.70;91.00
68217;DHT22;55037;52.354;4.992;2022-12-01T02:32:59;7.70;91.00
68217;DHT22;55037;52.354;4.992;2022-12-01T02:35:49;7.70;91.00
68217;DHT22;55037;52.354;4.992;2022-12-01T02:38:28;7.70;91.00
68217;DHT22;55037;52.354;4.992;2022-12-01T02:41:04;7.60;91.10
68217;DHT22;55037;52.354;4.992;2022-12-01T02:43:46;7.60;91.30
68217;DHT22;55037;52.354;4.992;2022-12-01T02:46:40;7.60;91.40
68217;DHT22;55037;52.354;4.992;2022-12-01T02:49:25;7.60;91.60
68217;DHT22;55037;52.354;4.992;2022-12-01T02:51:54;7.70;91.50
68217;DHT22;55037;52.354;4.992;2022-12-01T02:54:23;7.80;91.50
68217;DHT22;55037;52.354;4.992;2022-12-01T02:56:52;7.90;91.40
68217;DHT22;55037;52.354;4.992;2022-12-01T02:59:19;7.90;90.90
68217;DHT22;55037;52.354;4.992;2022-12-01T03:04:40;8.00;91.10
68217;DHT22;55037;52.354;4.992;2022-12-01T03:07:41;8.00;91.10
68217;DHT22;55037;52.354;4.992;2022-12-01T03:10:30;8.00;90.60
68217;DHT22;55037;52.354;4.992;2022-12-01T03:13:30;8.10;91.00
68217;DHT22;55037;52.354;4.992;2022-12-01T03:16:26;8.10;91.40
68217;DHT22;55037;52.354;4.992;2022-12-01T03:19:19;8.10;90.50
68217;DHT22;55037;52.354;4.992;2022-12-01T03:22:07;8.20;90.80
68217;DHT22;55037;52.354;4.992;2022-12-01T03:24:37;8.20;90.70
68217;DHT22;55037;52.354;4.992;2022-12-01T03:27:08;8.20;90.70
68217;DHT22;55037;52.354;4.992;2022-12-01T03:29:40;8.20;90.80
68217;DHT22;55037;52.354;4.992;2022-12-01T03:32:24;8.20;90.70
68217;DHT22;55037;52.354;4.992;2022-12-01T03:34:56;8.20;90.80
68217;DHT22;55037;52.354;4.992;2022-12-01T03:37:40;8.20;90.70
68217;DHT22;55037;52.354;4.992;2022-12-01T03:40:12;8.30;90.70
68217;DHT22;55037;52.354;4.992;2022-12-01T03:42:54;8.30;90.70
68217;DHT22;55037;52.354;4.992;2022-12-01T03:45:33;8.30;90.70
68217;DHT22;55037;52.354;4.992;2022-12-01T03:48:01;8.30;90.60
68217;DHT22;55037;52.354;4.992;2022-12-01T03:50:36;8.30;90.60
68217;DHT22;55037;52.354;4.992;2022-12-01T03:53:17;8.30;90.50
68217;DHT22;55037;52.354;4.992;2022-12-01T03:55:50;8.30;90.50
68217;DHT22;55037;52.354;4.992;2022-12-01T03:58:23;8.40;90.50
68217;DHT22;55037;52.354;4.992;2022-12-01T04:00:52;8.40;90.50
68217;DHT22;55037;52.354;4.992;2022-12-01T04:03:24;8.40;90.50
68217;DHT22;55037;52.354;4.992;2022-12-01T04:05:52;8.40;90.40
68217;DHT22;55037;52.354;4.992;2022-12-01T04:08:19;8.40;90.40
68217;DHT22;55037;52.354;4.992;2022-12-01T04:10:46;8.50;90.40
68217;DHT22;55037;52.354;4.992;2022-12-01T04:13:14;8.50;90.30
68217;DHT22;55037;52.354;4.992;2022-12-01T04:15:52;8.40;90.20
68217;DHT22;55037;52.354;4.992;2022-12-01T04:18:20;8.30;90.20
68217;DHT22;55037;52.354;4.992;2022-12-01T04:20:48;8.30;90.30
68217;DHT22;55037;52.354;4.992;2022-12-01T04:23:16;8.20;90.30
68217;DHT22;55037;52.354;4.992;2022-12-01T04:26:03;8.10;90.40
68217;DHT22;55037;52.354;4.992;2022-12-01T04:28:30;8.10;90.50
68217;DHT22;55037;52.354;4.992;2022-12-01T04:30:57;8.10;90.50
68217;DHT22;55037;52.354;4.992;2022-12-01T04:33:25;8.10;90.60
68217;DHT22;55037;52.354;4.992;2022-12-01T04:35:59;8.10;90.60
68217;DHT22;55037;52.354;4.992;2022-12-01T04:38:27;8.10;90.30
68217;DHT22;55037;52.354;4.992;2022-12-01T04:40:57;8.10;90.60
68217;DHT22;55037;52.354;4.992;2022-12-01T04:43:24;8.00;90.70
68217;DHT22;55037;52.354;4.992;2022-12-01T04:45:51;8.10;90.60
68217;DHT22;55037;52.354;4.992;2022-12-01T04:48:19;8.00;90.40
68217;DHT22;55037;52.354;4.992;2022-12-01T04:50:48;7.90;90.50
68217;DHT22;55037;52.354;4.992;2022-12-01T04:53:15;7.90;90.40
68217;DHT22;55037;52.354;4.992;2022-12-01T04:55:42;7.90;90.30
68217;DHT22;55037;52.354;4.992;2022-12-01T04:58:09;7.80;90.20
68217;DHT22;55037;52.354;4.992;2022-12-01T05:00:37;7.80;90.40
68217;DHT22;55037;52.354;4.992;2022-12-01T05:03:04;7.80;90.40
68217;DHT22;55037;52.354;4.992;2022-12-01T05:05:36;7.70;90.40
68217;DHT22;55037;52.354;4.992;2022-12-01T05:08:04;8.60;90.60
68217;DHT22;55037;52.354;4.992;2022-12-01T05:10:34;7.70;90.50
68217;DHT22;55037;52.354;4.992;2022-12-01T05:13:03;7.60;90.50
68217;DHT22;55037;52.354;4.992;2022-12-01T05:15:31;7.60;90.60
68217;DHT22;55037;52.354;4.992;2022-12-01T05:17:58;7.50;90.60
68217;DHT22;55037;52.354;4.992;2022-12-01T05:20:26;7.50;90.70
68217;DHT22;55037;52.354;4.992;2022-12-01T05:23:12;7.40;90.60
68217;DHT22;55037;52.354;4.992;2022-12-01T05:25:45;7.30;90.70
68217;DHT22;55037;52.354;4.992;2022-12-01T05:28:12;7.30;90.80
68217;DHT22;55037;52.354;4.992;2022-12-01T05:30:40;7.20;91.00
68217;DHT22;55037;52.354;4.992;2022-12-01T05:33:07;7.20;91.00
68217;DHT22;55037;52.354;4.992;2022-12-01T05:35:34;7.20;91.00
68217;DHT22;55037;52.354;4.992;2022-12-01T05:38:02;7.20;91.00
68217;DHT22;55037;52.354;4.992;2022-12-01T05:40:35;7.20;91.10
68217;DHT22;55037;52.354;4.992;2022-12-01T05:43:03;7.20;91.10
68217;DHT22;55037;52.354;4.992;2022-12-01T05:45:30;7.20;91.00
68217;DHT22;55037;52.354;4.992;2022-12-01T05:47:59;7.10;91.00
68217;DHT22;55037;52.354;4.992;2022-12-01T05:50:28;7.10;90.90
68217;DHT22;55037;52.354;4.992;2022-12-01T05:52:55;7.10;91.00
68217;DHT22;55037;52.354;4.992;2022-12-01T05:55:22;7.10;91.00
68217;DHT22;55037;52.354;4.992;2022-12-01T05:57:49;7.00;91.10
68217;DHT22;55037;52.354;4.992;2022-12-01T06:00:17;6.90;90.80
68217;DHT22;55037;52.354;4.992;2022-12-01T06:02:44;6.90;91.30
68217;DHT22;55037;52.354;4.992;2022-12-01T06:05:12;7.00;91.30
68217;DHT22;55037;52.354;4.992;2022-12-01T06:07:39;7.00;91.40
68217;DHT22;55037;52.354;4.992;2022-12-01T06:10:08;7.00;91.10
68217;DHT22;55037;52.354;4.992;2022-12-01T06:12:36;7.00;91.40
68217;DHT22;55037;52.354;4.992;2022-12-01T06:15:05;7.00;91.40
68217;DHT22;55037;52.354;4.992;2022-12-01T06:17:33;7.00;91.40
68217;DHT22;55037;52.354;4.992;2022-12-01T06:20:07;7.00;91.10
68217;DHT22;55037;52.354;4.992;2022-12-01T06:22:34;7.00;91.40
68217;DHT22;55037;52.354;4.992;2022-12-01T06:25:02;7.10;91.40
68217;DHT22;55037;52.354;4.992;2022-12-01T06:27:29;7.10;91.30
68217;DHT22;55037;52.354;4.992;2022-12-01T06:29:56;7.10;91.30
68217;DHT22;55037;52.354;4.992;2022-12-01T06:32:23;7.20;91.30
68217;DHT22;55037;52.354;4.992;2022-12-01T06:34:50;7.20;91.30
68217;DHT22;55037;52.354;4.992;2022-12-01T06:37:18;7.20;91.30
68217;DHT22;55037;52.354;4.992;2022-12-01T06:39:45;7.30;91.30
68217;DHT22;55037;52.354;4.992;2022-12-01T06:42:13;7.30;91.20
68217;DHT22;55037;52.354;4.992;2022-12-01T06:44:40;7.30;91.20
68217;DHT22;55037;52.354;4.992;2022-12-01T06:47:07;7.30;91.10
68217;DHT22;55037;52.354;4.992;2022-12-01T06:49:34;7.30;91.20
68217;DHT22;55037;52.354;4.992;2022-12-01T06:52:01;7.30;91.20
68217;DHT22;55037;52.354;4.992;2022-12-01T06:54:29;7.40;91.20
68217;DHT22;55037;52.354;4.992;2022-12-01T06:56:56;7.30;91.20
68217;DHT22;55037;52.354;4.992;2022-12-01T06:59:24;7.30;90.90
68217;DHT22;55037;52.354;4.992;2022-12-01T07:01:52;7.30;91.20
68217;DHT22;55037;52.354;4.992;2022-12-01T07:04:19;7.40;91.20
68217;DHT22;55037;52.354;4.992;2022-12-01T07:06:47;7.40;91.20
68217;DHT22;55037;52.354;4.992;2022-12-01T07:09:14;7.40;91.20
68217;DHT22;55037;52.354;4.992;2022-12-01T07:11:41;7.40;91.20
68217;DHT22;55037;52.354;4.992;2022-12-01T07:14:15;7.40;91.20
68217;DHT22;55037;52.354;4.992;2022-12-01T07:16:43;7.40;91.20
68217;DHT22;55037;52.354;4.992;2022-12-01T07:19:10;7.40;91.20
68217;DHT22;55037;52.354;4.992;2022-12-01T07:21:38;7.40;91.20
68217;DHT22;55037;52.354;4.992;2022-12-01T07:24:05;7.40;91.30
68217;DHT22;55037;52.354;4.992;2022-12-01T07:26:33;7.40;91.30
68217;DHT22;55037;52.354;4.992;2022-12-01T07:29:00;7.50;91.30
68217;DHT22;55037;52.354;4.992;2022-12-01T07:31:27;7.50;91.30
68217;DHT22;55037;52.354;4.992;2022-12-01T07:33:54;7.50;91.20
68217;DHT22;55037;52.354;4.992;2022-12-01T07:36:21;7.50;91.30
68217;DHT22;55037;52.354;4.992;2022-12-01T07:38:49;7.50;91.30
68217;DHT22;55037;52.354;4.992;2022-12-01T07:41:17;7.50;91.30
68217;DHT22;55037;52.354;4.992;2022-12-01T07:43:50;7.60;91.30
68217;DHT22;55037;52.354;4.992;2022-12-01T07:46:20;7.60;91.30
68217;DHT22;55037;52.354;4.992;2022-12-01T07:48:51;7.70;91.30
68217;DHT22;55037;52.354;4.992;2022-12-01T07:51:19;7.70;91.20
68217;DHT22;55037;52.354;4.992;2022-12-01T07:53:48;7.80;91.70
68217;DHT22;55037;52.354;4.992;2022-12-01T07:56:16;7.90;91.10
68217;DHT22;55037;52.354;4.992;2022-12-01T07:58:44;7.90;90.90
68217;DHT22;55037;52.354;4.992;2022-12-01T08:01:19;8.00;90.80
68217;DHT22;55037;52.354;4.992;2022-12-01T08:03:54;8.10;90.60
68217;DHT22;55037;52.354;4.992;2022-12-01T08:06:22;8.10;90.50
68217;DHT22;55037;52.354;4.992;2022-12-01T08:08:50;8.10;90.00
68217;DHT22;55037;52.354;4.992;2022-12-01T08:11:21;8.10;90.30
68217;DHT22;55037;52.354;4.992;2022-12-01T08:13:49;8.20;90.30
68217;DHT22;55037;52.354;4.992;2022-12-01T08:16:19;8.20;90.20
68217;DHT22;55037;52.354;4.992;2022-12-01T08:18:46;8.30;89.70
68217;DHT22;55037;52.354;4.992;2022-12-01T08:21:16;8.30;90.10
68217;DHT22;55037;52.354;4.992;2022-12-01T08:23:44;8.40;90.10
68217;DHT22;55037;52.354;4.992;2022-12-01T08:26:16;8.40;90.00
68217;DHT22;55037;52.354;4.992;2022-12-01T08:28:45;8.40;89.90
68217;DHT22;55037;52.354;4.992;2022-12-01T08:31:22;8.50;89.90
68217;DHT22;55037;52.354;4.992;2022-12-01T08:33:51;8.50;89.70
68217;DHT22;55037;52.354;4.992;2022-12-01T08:36:19;8.60;89.50
68217;DHT22;55037;52.354;4.992;2022-12-01T08:38:50;8.60;89.30
68217;DHT22;55037;52.354;4.992;2022-12-01T08:41:18;8.70;89.20
68217;DHT22;55037;52.354;4.992;2022-12-01T08:43:45;8.80;89.10
68217;DHT22;55037;52.354;4.992;2022-12-01T08:46:32;8.90;89.00
68217;DHT22;55037;52.354;4.992;2022-12-01T08:49:00;9.00;88.60
68217;DHT22;55037;52.354;4.992;2022-12-01T08:51:27;9.10;87.80
68217;DHT22;55037;52.354;4.992;2022-12-01T08:53:56;9.00;87.10
68217;DHT22;55037;52.354;4.992;2022-12-01T08:56:28;8.90;86.90
68217;DHT22;55037;52.354;4.992;2022-12-01T08:58:56;8.80;87.10
68217;DHT22;55037;52.354;4.992;2022-12-01T09:01:24;8.80;90.10
68217;DHT22;55037;52.354;4.992;2022-12-01T09:03:52;9.90;90.50
68217;DHT22;55037;52.354;4.992;2022-12-01T09:06:34;11.40;85.20
68217;DHT22;55037;52.354;4.992;2022-12-01T09:09:04;13.10;78.80
68217;DHT22;55037;52.354;4.992;2022-12-01T09:11:31;14.90;73.00
68217;DHT22;55037;52.354;4.992;2022-12-01T09:13:59;16.60;66.20
68217;DHT22;55037;52.354;4.992;2022-12-01T09:16:30;18.10;59.20
68217;DHT22;55037;52.354;4.992;2022-12-01T09:18:57;19.30;52.40
68217;DHT22;55037;52.354;4.992;2022-12-01T09:21:29;20.00;49.00
68217;DHT22;55037;52.354;4.992;2022-12-01T09:23:57;20.80;46.70
68217;DHT22;55037;52.354;4.992;2022-12-01T09:26:26;21.70;44.20
68217;DHT22;55037;52.354;4.992;2022-12-01T09:28:56;22.20;40.30
68217;DHT22;55037;52.354;4.992;2022-12-01T09:31:24;22.70;39.60
68217;DHT22;55037;52.354;4.992;2022-12-01T09:33:59;23.10;37.60
68217;DHT22;55037;52.354;4.992;2022-12-01T09:36:29;23.20;36.80
68217;DHT22;55037;52.354;4.992;2022-12-01T09:38:57;23.20;36.80
68217;DHT22;55037;52.354;4.992;2022-12-01T09:43:59;24.50;34.80
68217;DHT22;55037;52.354;4.992;2022-12-01T09:46:39;25.30;32.70
68217;DHT22;55037;52.354;4.992;2022-12-01T09:49:15;26.20;31.20
68217;DHT22;55037;52.354;4.992;2022-12-01T09:51:43;27.00;30.90
68217;DHT22;55037;52.354;4.992;2022-12-01T09:54:12;27.80;28.50
68217;DHT22;55037;52.354;4.992;2022-12-01T09:56:46;28.20;28.20
68217;DHT22;55037;52.354;4.992;2022-12-01T09:59:26;28.60;27.20
68217;DHT22;55037;52.354;4.992;2022-12-01T10:02:03;29.00;26.70
68217;DHT22;55037;52.354;4.992;2022-12-01T10:04:38;29.10;26.50
68217;DHT22;55037;52.354;4.992;2022-12-01T10:07:23;29.10;26.10
68217;DHT22;55037;52.354;4.992;2022-12-01T10:09:55;28.90;26.00
68217;DHT22;55037;52.354;4.992;2022-12-01T10:12:26;28.80;25.90
68217;DHT22;55037;52.354;4.992;2022-12-01T10:15:45;28.70;25.80
68217;DHT22;55037;52.354;4.992;2022-12-01T10:20:44;29.10;25.50
68217;DHT22;55037;52.354;4.992;2022-12-01T10:26:13;30.00;24.90
68217;DHT22;55037;52.354;4.992;2022-12-01T10:29:01;31.00;23.80
68217;DHT22;55037;52.354;4.992;2022-12-01T10:31:47;31.70;22.80
68217;DHT22;55037;52.354;4.992;2022-12-01T10:34:26;31.90;22.50
68217;DHT22;55037;52.354;4.992;2022-12-01T10:36:55;31.50;22.80
68217;DHT22;55037;52.354;4.992;2022-12-01T10:39:32;31.90;22.50
68217;DHT22;55037;52.354;4.992;2022-12-01T10:42:18;32.30;22.00
68217;DHT22;55037;52.354;4.992;2022-12-01T10:44:49;31.70;22.00
68217;DHT22;55037;52.354;4.992;2022-12-01T10:47:20;30.40;23.50
68217;DHT22;55037;52.354;4.992;2022-12-01T10:49:47;30.70;23.60
68217;DHT22;55037;52.354;4.992;2022-12-01T10:52:41;32.10;22.50
68217;DHT22;55037;52.354;4.992;2022-12-01T10:57:55;34.30;20.10
68217;DHT22;55037;52.354;4.992;2022-12-01T11:00:34;34.60;19.20
68217;DHT22;55037;52.354;4.992;2022-12-01T11:03:26;34.90;19.00
68217;DHT22;55037;52.354;4.992;2022-12-01T11:05:56;35.30;19.00
68217;DHT22;55037;52.354;4.992;2022-12-01T11:08:45;35.50;18.40
68217;DHT22;55037;52.354;4.992;2022-12-01T11:13:50;35.50;18.00
68217;DHT22;55037;52.354;4.992;2022-12-01T11:16:37;35.50;18.20
68217;DHT22;55037;52.354;4.992;2022-12-01T11:19:20;35.30;18.30
68217;DHT22;55037;52.354;4.992;2022-12-01T11:21:56;35.30;18.10
68217;DHT22;55037;52.354;4.992;2022-12-01T11:24:55;35.70;17.90
68217;DHT22;55037;52.354;4.992;2022-12-01T11:27:29;36.30;17.60
68217;DHT22;55037;52.354;4.992;2022-12-01T11:30:01;36.70;17.30
68217;DHT22;55037;52.354;4.992;2022-12-01T11:32:38;36.70;17.20
68217;DHT22;55037;52.354;4.992;2022-12-01T11:37:45;35.90;17.70
68217;DHT22;55037;52.354;4.992;2022-12-01T11:40:30;35.90;17.50
68217;DHT22;55037;52.354;4.992;2022-12-01T11:43:01;35.90;17.80
68217;DHT22;55037;52.354;4.992;2022-12-01T11:45:35;35.90;17.70
68217;DHT22;55037;52.354;4.992;2022-12-01T11:50:43;36.40;17.40
68217;DHT22;55037;52.354;4.992;2022-12-01T11:53:33;36.50;17.20
68217;DHT22;55037;52.354;4.992;2022-12-01T11:58:59;37.10;16.90
68217;DHT22;55037;52.354;4.992;2022-12-01T12:12:43;37.10;16.60
68217;DHT22;55037;52.354;4.992;2022-12-01T12:20:33;36.90;16.50
68217;DHT22;55037;52.354;4.992;2022-12-01T12:31:17;37.10;16.60
68217;DHT22;55037;52.354;4.992;2022-12-01T12:34:18;37.00;16.60
68217;DHT22;55037;52.354;4.992;2022-12-01T12:41:55;36.30;16.70
68217;DHT22;55037;52.354;4.992;2022-12-01T12:44:50;35.80;17.30
68217;DHT22;55037;52.354;4.992;2022-12-01T12:47:43;35.90;17.20
68217;DHT22;55037;52.354;4.992;2022-12-01T12:53:14;35.70;17.10
68217;DHT22;55037;52.354;4.992;2022-12-01T12:55:48;35.20;17.30
68217;DHT22;55037;52.354;4.992;2022-12-01T13:01:11;34.30;18.00
68217;DHT22;55037;52.354;4.992;2022-12-01T13:03:57;34.30;18.10
68217;DHT22;55037;52.354;4.992;2022-12-01T13:09:06;34.50;18.10
68217;DHT22;55037;52.354;4.992;2022-12-01T13:11:55;34.80;18.00
68217;DHT22;55037;52.354;4.992;2022-12-01T13:14:35;34.80;17.90
68217;DHT22;55037;52.354;4.992;2022-12-01T13:17:20;34.30;18.00
68217;DHT22;55037;52.354;4.992;2022-12-01T13:19:49;33.60;18.50
68217;DHT22;55037;52.354;4.992;2022-12-01T13:22:19;33.30;18.90
68217;DHT22;55037;52.354;4.992;2022-12-01T13:24:47;32.90;19.30
68217;DHT22;55037;52.354;4.992;2022-12-01T13:27:21;32.40;19.60
68217;DHT22;55037;52.354;4.992;2022-12-01T13:29:51;31.60;19.80
68217;DHT22;55037;52.354;4.992;2022-12-01T13:32:35;30.00;21.20
68217;DHT22;55037;52.354;4.992;2022-12-01T13:35:19;29.30;22.50
68217;DHT22;55037;52.354;4.992;2022-12-01T13:37:47;29.10;22.20
68217;DHT22;55037;52.354;4.992;2022-12-01T13:40:23;29.10;22.30
68217;DHT22;55037;52.354;4.992;2022-12-01T13:43:00;29.00;22.60
68217;DHT22;55037;52.354;4.992;2022-12-01T13:45:36;29.00;22.40
68217;DHT22;55037;52.354;4.992;2022-12-01T13:48:05;29.10;22.20
68217;DHT22;55037;52.354;4.992;2022-12-01T14:07:25;26.80;24.30
68217;DHT22;55037;52.354;4.992;2022-12-01T14:09:35;26.50;24.60
68217;DHT22;55037;52.354;4.992;2022-12-01T14:12:16;26.20;24.90
68217;DHT22;55037;52.354;4.992;2022-12-01T14:14:53;25.80;25.30
68217;DHT22;55037;52.354;4.992;2022-12-01T14:17:31;25.40;26.10
68217;DHT22;55037;52.354;4.992;2022-12-01T14:23:58;24.10;27.30
68217;DHT22;55037;52.354;4.992;2022-12-01T14:26:17;23.50;28.30
68217;DHT22;55037;52.354;4.992;2022-12-01T14:31:22;22.30;29.80
68217;DHT22;55037;52.354;4.992;2022-12-01T14:33:57;21.60;30.90
68217;DHT22;55037;52.354;4.992;2022-12-01T14:36:47;20.50;32.50
68217;DHT22;55037;52.354;4.992;2022-12-01T14:39:21;19.20;35.00
68217;DHT22;55037;52.354;4.992;2022-12-01T14:41:59;18.50;37.10
68217;DHT22;55037;52.354;4.992;2022-12-01T14:44:43;17.90;37.80
68217;DHT22;55037;52.354;4.992;2022-12-01T14:47:20;17.20;39.70
68217;DHT22;55037;52.354;4.992;2022-12-01T14:52:42;15.80;43.00
68217;DHT22;55037;52.354;4.992;2022-12-01T14:55:18;15.10;44.90
68217;DHT22;55037;52.354;4.992;2022-12-01T14:58:12;14.60;46.50
68217;DHT22;55037;52.354;4.992;2022-12-01T15:00:56;14.10;48.70
68217;DHT22;55037;52.354;4.992;2022-12-01T15:03:31;13.60;50.40
68217;DHT22;55037;52.354;4.992;2022-12-01T15:05:59;13.20;52.00
68217;DHT22;55037;52.354;4.992;2022-12-01T15:08:29;12.80;53.70
68217;DHT22;55037;52.354;4.992;2022-12-01T15:11:24;12.40;55.80
68217;DHT22;55037;52.354;4.992;2022-12-01T15:13:54;12.00;58.10
68217;DHT22;55037;52.354;4.992;2022-12-01T15:16:27;11.60;59.70
68217;DHT22;55037;52.354;4.992;2022-12-01T15:18:55;11.30;61.10
68217;DHT22;55037;52.354;4.992;2022-12-01T15:21:25;11.00;62.40
68217;DHT22;55037;52.354;4.992;2022-12-01T15:24:01;10.70;63.60
68217;DHT22;55037;52.354;4.992;2022-12-01T15:26:34;10.40;64.80
68217;DHT22;55037;52.354;4.992;2022-12-01T15:29:17;10.10;66.40
68217;DHT22;55037;52.354;4.992;2022-12-01T15:31:52;9.80;67.40
68217;DHT22;55037;52.354;4.992;2022-12-01T15:34:32;9.50;68.60
68217;DHT22;55037;52.354;4.992;2022-12-01T15:37:07;9.30;69.60
68217;DHT22;55037;52.354;4.992;2022-12-01T15:39:41;9.10;70.70
68217;DHT22;55037;52.354;4.992;2022-12-01T15:42:25;8.90;71.40
68217;DHT22;55037;52.354;4.992;2022-12-01T15:45:17;8.70;72.50
68217;DHT22;55037;52.354;4.992;2022-12-01T15:47:47;8.50;73.40
68217;DHT22;55037;52.354;4.992;2022-12-01T15:50:33;8.40;74.30
68217;DHT22;55037;52.354;4.992;2022-12-01T15:53:18;8.30;74.70
68217;DHT22;55037;52.354;4.992;2022-12-01T15:55:48;8.20;74.80
68217;DHT22;55037;52.354;4.992;2022-12-01T15:58:29;8.10;75.80
68217;DHT22;55037;52.354;4.992;2022-12-01T16:06:13;8.10;77.60
68217;DHT22;55037;52.354;4.992;2022-12-01T16:08:40;8.20;77.60
68217;DHT22;55037;52.354;4.992;2022-12-01T16:11:16;8.30;77.40
68217;DHT22;55037;52.354;4.992;2022-12-01T16:13:47;8.40;77.30
68217;DHT22;55037;52.354;4.992;2022-12-01T16:16:29;8.50;77.30
68217;DHT22;55037;52.354;4.992;2022-12-01T16:19:03;8.50;77.20
68217;DHT22;55037;52.354;4.992;2022-12-01T16:21:48;8.50;76.90
68217;DHT22;55037;52.354;4.992;2022-12-01T16:24:21;8.40;77.10
68217;DHT22;55037;52.354;4.992;2022-12-01T16:26:56;8.30;77.40
68217;DHT22;55037;52.354;4.992;2022-12-01T16:29:25;8.20;77.60
68217;DHT22;55037;52.354;4.992;2022-12-01T16:31:55;8.10;77.90
68217;DHT22;55037;52.354;4.992;2022-12-01T16:34:42;8.10;78.20
68217;DHT22;55037;52.354;4.992;2022-12-01T16:37:13;8.10;78.40
68217;DHT22;55037;52.354;4.992;2022-12-01T16:39:41;8.10;78.60
68217;DHT22;55037;52.354;4.992;2022-12-01T16:42:13;8.10;78.50
68217;DHT22;55037;52.354;4.992;2022-12-01T16:44:42;8.10;78.60
68217;DHT22;55037;52.354;4.992;2022-12-01T16:47:22;8.10;78.60
68217;DHT22;55037;52.354;4.992;2022-12-01T16:49:51;8.10;77.90
68217;DHT22;55037;52.354;4.992;2022-12-01T16:52:18;8.10;78.80
68217;DHT22;55037;52.354;4.992;2022-12-01T16:55:22;8.10;78.70
68217;DHT22;55037;52.354;4.992;2022-12-01T16:57:50;8.10;78.70
68217;DHT22;55037;52.354;4.992;2022-12-01T17:00:18;8.10;78.90
68217;DHT22;55037;52.354;4.992;2022-12-01T17:02:45;8.10;79.10
68217;DHT22;55037;52.354;4.992;2022-12-01T17:05:13;8.10;79.10
68217;DHT22;55037;52.354;4.992;2022-12-01T17:07:40;8.10;79.10
68217;DHT22;55037;52.354;4.992;2022-12-01T17:10:08;8.10;79.20
68217;DHT22;55037;52.354;4.992;2022-12-01T17:12:35;8.10;79.10
68217;DHT22;55037;52.354;4.992;2022-12-01T17:15:03;8.10;79.20
68217;DHT22;55037;52.354;4.992;2022-12-01T17:17:30;8.00;79.40
68217;DHT22;55037;52.354;4.992;2022-12-01T17:19:58;8.10;79.40
68217;DHT22;55037;52.354;4.992;2022-12-01T17:22:25;8.00;79.40
68217;DHT22;55037;52.354;4.992;2022-12-01T17:24:52;8.00;79.40
68217;DHT22;55037;52.354;4.992;2022-12-01T17:27:22;8.00;79.60
68217;DHT22;55037;52.354;4.992;2022-12-01T17:29:50;8.00;78.90
68217;DHT22;55037;52.354;4.992;2022-12-01T17:32:17;8.00;79.80
68217;DHT22;55037;52.354;4.992;2022-12-01T17:34:45;8.00;80.00
68217;DHT22;55037;52.354;4.992;2022-12-01T17:37:12;8.00;80.10
68217;DHT22;55037;52.354;4.992;2022-12-01T17:39:48;8.00;80.30
68217;DHT22;55037;52.354;4.992;2022-12-01T17:42:15;8.00;80.30
68217;DHT22;55037;52.354;4.992;2022-12-01T17:44:42;7.90;80.40
68217;DHT22;55037;52.354;4.992;2022-12-01T17:47:10;7.90;80.60
68217;DHT22;55037;52.354;4.992;2022-12-01T17:49:38;7.90;80.00
68217;DHT22;55037;52.354;4.992;2022-12-01T17:52:05;7.90;80.80
68217;DHT22;55037;52.354;4.992;2022-12-01T17:54:34;8.00;80.90
68217;DHT22;55037;52.354;4.992;2022-12-01T17:57:01;8.00;80.80
68217;DHT22;55037;52.354;4.992;2022-12-01T17:59:28;8.00;80.10
68217;DHT22;55037;52.354;4.992;2022-12-01T18:01:55;8.00;80.70
68217;DHT22;55037;52.354;4.992;2022-12-01T18:04:23;8.00;80.80